createdAt,value
2022-12-25T00:01:51.391Z,101158.66
2022-12-25T00:04:55.779Z,101161.44
2022-12-25T00:08:00.337Z,101187.53
2022-12-25T00:11:11.127Z,101181.66
2022-12-25T00:14:15.711Z,101189.81
2022-12-25T00:17:20.200Z,101156.69
2022-12-25T00:20:24.760Z,101197.59
2022-12-25T00:23:29.951Z,101193.59
2022-12-25T00:26:34.576Z,101191.44
2022-12-25T00:29:39.141Z,101157.28
2022-12-25T00:32:43.570Z,101191.84
2022-12-25T00:35:59.854Z,101197.25
2022-12-25T00:39:05.272Z,101206.47
2022-12-25T00:42:22.679Z,101203.09
2022-12-25T00:45:27.495Z,101209.78
2022-12-25T00:48:33.606Z,101210.09
2022-12-25T00:51:38.866Z,101213.09
2022-12-25T00:54:43.337Z,101211.97
2022-12-25T00:57:47.588Z,101205.03
2022-12-25T01:00:52.151Z,101213.66
2022-12-25T01:03:56.995Z,101213.34
2022-12-25T01:07:01.541Z,101216.88
2022-12-25T01:10:25.266Z,101214.53
2022-12-25T01:13:35.411Z,101224.00
2022-12-25T01:16:40.378Z,101223.91
2022-12-25T01:19:44.827Z,101220.16
2022-12-25T01:22:49.415Z,101204.34
2022-12-25T01:25:53.880Z,101217.03
2022-12-25T01:28:58.351Z,101222.19
2022-12-25T01:32:03.712Z,101229.38
2022-12-25T01:35:08.693Z,101224.19
2022-12-25T01:38:14.061Z,101213.38
2022-12-25T01:41:21.490Z,101217.41
2022-12-25T01:44:39.063Z,101227.88
2022-12-25T01:47:46.230Z,101217.44
2022-12-25T01:50:59.036Z,101224.81
2022-12-25T01:54:09.709Z,101229.47
2022-12-25T01:57:20.398Z,101219.00
2022-12-25T02:00:24.910Z,101223.06
2022-12-25T02:03:29.605Z,101224.84
2022-12-25T02:06:36.645Z,101211.22
2022-12-25T02:09:41.439Z,101217.22
2022-12-25T02:12:47.024Z,101207.84
2022-12-25T02:16:06.031Z,101210.16
2022-12-25T02:19:33.663Z,101208.66
2022-12-25T02:22:56.443Z,101217.06
2022-12-25T02:26:25.427Z,101215.75
2022-12-25T02:30:02.044Z,101209.31
2022-12-25T02:33:37.712Z,101211.41
2022-12-25T02:36:42.198Z,101202.69
2022-12-25T02:39:58.877Z,101220.78
2022-12-25T02:43:24.270Z,101207.25
2022-12-25T02:46:51.595Z,101199.16
2022-12-25T02:50:16.318Z,101222.06
2022-12-25T02:53:41.316Z,101221.97
2022-12-25T02:57:07.710Z,101212.13
2022-12-25T03:00:33.201Z,101206.09
2022-12-25T03:04:00.630Z,101173.53
2022-12-25T03:07:07.894Z,101215.34
2022-12-25T03:10:34.708Z,101202.25
2022-12-25T03:13:44.437Z,101154.69
2022-12-25T03:16:56.142Z,101208.72
2022-12-25T03:20:20.111Z,101211.47
2022-12-25T03:23:52.743Z,101208.91
2022-12-25T03:26:59.088Z,101197.31
2022-12-25T03:30:23.695Z,101202.53
2022-12-25T03:34:11.136Z,101201.94
2022-12-25T03:37:44.997Z,101209.81
2022-12-25T03:41:42.907Z,101206.09
2022-12-25T03:45:24.823Z,101197.56
2022-12-25T03:48:50.416Z,101196.50
2022-12-25T03:52:17.140Z,101187.56
2022-12-25T03:55:41.945Z,101188.16
2022-12-25T03:59:23.214Z,101193.53
2022-12-25T04:02:46.511Z,101195.38
2022-12-25T04:06:09.558Z,101189.25
2022-12-25T04:09:32.516Z,101187.31
2022-12-25T04:12:55.425Z,101194.22
2022-12-25T04:16:18.464Z,101194.56
2022-12-25T04:19:41.068Z,101207.22
2022-12-25T04:23:04.252Z,101197.88
2022-12-25T04:26:27.143Z,101192.53
2022-12-25T04:29:49.961Z,101194.84
2022-12-25T04:33:18.274Z,101211.75
2022-12-25T04:36:22.950Z,101202.69
2022-12-25T04:39:27.295Z,101188.34
2022-12-25T04:42:32.115Z,101223.06
2022-12-25T04:45:36.457Z,101227.72
2022-12-25T04:48:40.909Z,101219.09
2022-12-25T04:51:45.456Z,101234.28
2022-12-25T04:54:49.962Z,101239.63
2022-12-25T04:57:54.523Z,101248.94
2022-12-25T05:01:04.486Z,101161.03
2022-12-25T05:04:08.962Z,101255.28
2022-12-25T05:07:13.535Z,101253.28
2022-12-25T05:10:18.129Z,101260.09
2022-12-25T05:13:22.719Z,101271.41
2022-12-25T05:16:27.463Z,101246.47
2022-12-25T05:19:32.593Z,101274.91
2022-12-25T05:22:36.908Z,101283.44
2022-12-25T05:25:41.874Z,101271.81
2022-12-25T05:28:47.068Z,101291.06
2022-12-25T05:31:51.669Z,101289.78
2022-12-25T05:34:56.478Z,101297.91
2022-12-25T05:38:01.108Z,101289.34
2022-12-25T05:41:06.182Z,101297.97
2022-12-25T05:44:10.856Z,101294.66
2022-12-25T05:47:15.481Z,101304.31
2022-12-25T05:50:20.033Z,101308.84
2022-12-25T05:53:24.628Z,101273.38
2022-12-25T05:56:29.236Z,101309.03
2022-12-25T05:59:34.753Z,101297.78
2022-12-25T06:02:39.755Z,101275.91
2022-12-25T06:05:44.412Z,101309.66
2022-12-25T06:08:49.269Z,101329.94
2022-12-25T06:11:53.846Z,101334.69
2022-12-25T06:14:58.499Z,101343.28
2022-12-25T06:18:03.480Z,101349.53
2022-12-25T06:21:14.197Z,101362.78
2022-12-25T06:24:21.562Z,101345.03
2022-12-25T06:27:27.169Z,101346.59
2022-12-25T06:30:32.769Z,101354.44
2022-12-25T06:33:37.899Z,101362.00
2022-12-25T06:36:42.412Z,101343.38
2022-12-25T06:39:48.033Z,101356.91
2022-12-25T06:42:53.752Z,101366.50
2022-12-25T06:45:58.225Z,101363.69
2022-12-25T06:49:03.077Z,101364.25
2022-12-25T06:52:07.671Z,101362.28
2022-12-25T06:55:12.164Z,101377.94
2022-12-25T06:58:16.660Z,101363.22
2022-12-25T07:01:22.972Z,101376.28
2022-12-25T07:04:43.076Z,101367.44
2022-12-25T07:07:47.569Z,101376.78
2022-12-25T07:10:52.735Z,101361.81
2022-12-25T07:13:57.173Z,101363.41
2022-12-25T07:17:01.770Z,101378.06
2022-12-25T07:20:07.776Z,101375.41
2022-12-25T07:23:12.254Z,101375.97
2022-12-25T07:26:18.270Z,101365.28
2022-12-25T07:29:23.023Z,101389.47
2022-12-25T07:32:27.599Z,101397.34
2022-12-25T07:35:32.133Z,101416.25
2022-12-25T07:38:36.824Z,101417.44
2022-12-25T07:41:42.739Z,101413.44
2022-12-25T07:44:53.236Z,101416.91
2022-12-25T07:48:02.707Z,101371.41
2022-12-25T07:51:13.801Z,101423.44
2022-12-25T07:54:18.544Z,101415.69
2022-12-25T07:57:22.990Z,101421.66
2022-12-25T08:00:30.695Z,101431.88
2022-12-25T08:03:36.708Z,101267.41
2022-12-25T08:06:41.413Z,101431.44
2022-12-25T08:09:45.866Z,101455.38
2022-12-25T08:12:50.469Z,101446.75
2022-12-25T08:16:02.475Z,101454.69
2022-12-25T08:19:06.847Z,101474.09
2022-12-25T08:22:11.309Z,101474.09
2022-12-25T08:25:16.747Z,101458.75
2022-12-25T08:28:21.046Z,101461.97
2022-12-25T08:31:29.354Z,101465.06
2022-12-25T08:34:33.932Z,101480.34
2022-12-25T08:37:38.542Z,101455.19
2022-12-25T08:40:43.332Z,101482.66
2022-12-25T08:43:47.723Z,101466.94
2022-12-25T08:46:52.265Z,101491.66
2022-12-25T08:49:56.685Z,101486.44
2022-12-25T08:53:01.697Z,101494.50
2022-12-25T08:56:08.522Z,101497.81
2022-12-25T08:59:13.077Z,101487.38
2022-12-25T09:02:19.230Z,101500.88
2022-12-25T09:05:26.032Z,101501.06
2022-12-25T09:08:32.265Z,101496.59
2022-12-25T09:11:36.844Z,101499.94
2022-12-25T09:14:41.385Z,101510.63
2022-12-25T09:17:46.380Z,101508.06
2022-12-25T09:21:16.785Z,101516.94
2022-12-25T09:24:21.794Z,101498.75
2022-12-25T09:27:26.508Z,101515.50
2022-12-25T09:30:31.065Z,101524.66
2022-12-25T09:33:36.472Z,101522.09
2022-12-25T09:36:40.970Z,101529.28
2022-12-25T09:39:46.568Z,101526.34
2022-12-25T09:42:54.670Z,101544.00
2022-12-25T09:46:03.559Z,101535.97
2022-12-25T09:49:17.513Z,101509.50
2022-12-25T09:52:29.769Z,101531.16
2022-12-25T09:55:41.980Z,101549.94
2022-12-25T09:58:46.901Z,101532.97
2022-12-25T10:02:38.058Z,101559.66
2022-12-25T10:05:56.346Z,101564.47
2022-12-25T10:09:17.479Z,101558.88
2022-12-25T10:12:41.627Z,101554.75
2022-12-25T10:16:10.368Z,101545.81
2022-12-25T10:19:41.672Z,101548.72
2022-12-25T10:22:52.834Z,101532.28
2022-12-25T10:25:58.117Z,101552.19
2022-12-25T10:29:11.433Z,101560.19
2022-12-25T10:32:16.239Z,101541.34
2022-12-25T10:35:23.769Z,101560.31
2022-12-25T10:38:28.047Z,101568.94
2022-12-25T10:42:04.433Z,101571.94
2022-12-25T10:45:11.089Z,101566.78
2022-12-25T10:48:30.687Z,101570.50
2022-12-25T10:51:37.040Z,101572.41
2022-12-25T10:54:41.709Z,101551.72
2022-12-25T10:57:47.597Z,101582.56
2022-12-25T11:00:59.905Z,101580.78
2022-12-25T11:04:04.461Z,101590.59
2022-12-25T11:07:15.713Z,101586.56
2022-12-25T11:10:25.676Z,101586.34
2022-12-25T11:13:32.109Z,101584.00
2022-12-25T11:16:42.349Z,101577.88
2022-12-25T11:19:54.785Z,101554.38
2022-12-25T11:22:59.261Z,101581.00
2022-12-25T11:26:09.286Z,101585.00
2022-12-25T11:29:32.749Z,101584.31
2022-12-25T11:32:48.930Z,101579.56
2022-12-25T11:36:00.501Z,101581.59
2022-12-25T11:39:26.330Z,101594.31
2022-12-25T11:42:41.230Z,101595.56
2022-12-25T11:46:07.095Z,101604.66
2022-12-25T11:49:20.210Z,101597.91
2022-12-25T11:52:29.605Z,101614.75
2022-12-25T11:55:47.220Z,101614.31
2022-12-25T11:58:54.936Z,101614.88
2022-12-25T12:02:19.643Z,101621.66
2022-12-25T12:05:44.103Z,101619.50
2022-12-25T12:08:56.607Z,101611.72
2022-12-25T12:12:30.348Z,101598.88
2022-12-25T12:15:45.119Z,101619.94
2022-12-25T12:18:50.804Z,101627.09
2022-12-25T12:21:59.602Z,101607.78
2022-12-25T12:25:09.363Z,101626.28
2022-12-25T12:28:22.649Z,101628.16
2022-12-25T12:31:37.805Z,101629.63
2022-12-25T12:34:50.972Z,101627.31
2022-12-25T12:37:58.837Z,101632.69
2022-12-25T12:41:09.220Z,101643.25
2022-12-25T12:44:16.931Z,101637.78
2022-12-25T12:47:42.635Z,101621.03
2022-12-25T12:50:48.463Z,101646.03
2022-12-25T12:54:05.035Z,101652.28
2022-12-25T12:57:26.147Z,101663.69
2022-12-25T13:00:49.708Z,101669.94
2022-12-25T13:04:07.142Z,101656.75
2022-12-25T13:07:33.153Z,101660.56
2022-12-25T13:10:47.069Z,101661.75
2022-12-25T13:13:53.837Z,101654.25
2022-12-25T13:16:58.378Z,101660.38
2022-12-25T13:20:03.244Z,101661.50
2022-12-25T13:23:38.358Z,101617.72
2022-12-25T13:26:42.964Z,101683.03
2022-12-25T13:29:47.543Z,101684.69
2022-12-25T13:32:52.343Z,101630.41
2022-12-25T13:35:57.140Z,101687.69
2022-12-25T13:39:02.230Z,101693.44
2022-12-25T13:42:10.761Z,101688.56
2022-12-25T13:45:21.844Z,101694.72
2022-12-25T13:48:26.865Z,101685.81
2022-12-25T13:51:31.633Z,101678.75
2022-12-25T13:54:36.487Z,101680.69
2022-12-25T13:58:08.446Z,101691.03
2022-12-25T14:01:17.990Z,101685.53
2022-12-25T14:04:25.547Z,101680.69
2022-12-25T14:07:30.760Z,101686.69
2022-12-25T14:10:39.373Z,101680.94
2022-12-25T14:13:46.621Z,101681.94
2022-12-25T14:16:54.468Z,101690.47
2022-12-25T14:20:07.838Z,101640.50
2022-12-25T14:23:17.292Z,101678.25
2022-12-25T14:26:25.064Z,101686.34
2022-12-25T14:29:38.831Z,101679.09
2022-12-25T14:32:47.317Z,101683.38
2022-12-25T14:35:53.621Z,101675.09
2022-12-25T14:39:07.504Z,101685.69
2022-12-25T14:42:43.070Z,101680.13
2022-12-25T14:45:56.894Z,101668.28
2022-12-25T14:49:07.965Z,101688.38
2022-12-25T14:52:20.020Z,101681.31
2022-12-25T14:55:28.423Z,101682.94
2022-12-25T14:58:42.997Z,101688.94
2022-12-25T15:01:53.511Z,101672.53
2022-12-25T15:04:58.169Z,101685.19
2022-12-25T15:08:14.667Z,101698.75
2022-12-25T15:11:19.107Z,101693.41
2022-12-25T15:14:24.976Z,101693.44
2022-12-25T15:17:38.954Z,101674.94
2022-12-25T15:20:43.628Z,101692.88
2022-12-25T15:23:48.694Z,101702.59
2022-12-25T15:26:56.188Z,101679.13
2022-12-25T15:30:09.736Z,101691.94
2022-12-25T15:33:17.596Z,101694.09
2022-12-25T15:36:23.219Z,101700.66
2022-12-25T15:39:27.839Z,101682.69
2022-12-25T15:42:33.201Z,101698.09
2022-12-25T15:45:39.054Z,101686.53
2022-12-25T15:48:43.546Z,101683.59
2022-12-25T15:51:48.358Z,101705.47
2022-12-25T15:54:55.085Z,101677.25
2022-12-25T15:58:00.032Z,101694.72
2022-12-25T16:01:05.068Z,101707.78
2022-12-25T16:04:09.809Z,101691.34
2022-12-25T16:07:20.471Z,101720.28
2022-12-25T16:10:25.151Z,101712.59
2022-12-25T16:13:29.613Z,101718.22
2022-12-25T16:16:34.675Z,101735.47
2022-12-25T16:19:39.420Z,101729.44
2022-12-25T16:22:44.360Z,101725.25
2022-12-25T16:25:49.325Z,101727.75
2022-12-25T16:28:53.812Z,101676.75
2022-12-25T16:31:58.307Z,101723.31
2022-12-25T16:35:03.071Z,101716.97
2022-12-25T16:38:07.638Z,101713.31
2022-12-25T16:41:14.750Z,101719.19
2022-12-25T16:44:19.360Z,101725.94
2022-12-25T16:47:24.074Z,101729.38
2022-12-25T16:50:28.467Z,101740.22
2022-12-25T16:53:33.436Z,101752.16
2022-12-25T16:56:38.114Z,101728.19
2022-12-25T16:59:42.792Z,101766.22
2022-12-25T17:02:47.530Z,101769.69
2022-12-25T17:05:52.128Z,101779.03
2022-12-25T17:08:59.992Z,101782.75
2022-12-25T17:12:06.009Z,101783.88
2022-12-25T17:15:11.032Z,101772.66
2022-12-25T17:18:15.506Z,101790.34
2022-12-25T17:21:19.875Z,101776.00
2022-12-25T17:24:24.499Z,101760.88
2022-12-25T17:27:29.064Z,101782.50
2022-12-25T17:30:34.287Z,101790.97
2022-12-25T17:33:44.001Z,101796.13
2022-12-25T17:36:49.198Z,101779.56
2022-12-25T17:39:53.559Z,101763.94
2022-12-25T17:42:58.190Z,101775.22
2022-12-25T17:46:08.043Z,101793.75
2022-12-25T17:49:16.914Z,101783.16
2022-12-25T17:52:21.273Z,101787.78
2022-12-25T17:55:25.807Z,101770.09
2022-12-25T17:58:30.549Z,101787.38
2022-12-25T18:01:36.206Z,101799.56
2022-12-25T18:04:41.038Z,101806.97
2022-12-25T18:07:46.035Z,101794.00
2022-12-25T18:10:50.573Z,101801.84
2022-12-25T18:13:55.861Z,101802.03
2022-12-25T18:17:00.514Z,101799.13
2022-12-25T18:20:07.168Z,101787.63
2022-12-25T18:23:12.151Z,101796.19
2022-12-25T18:26:16.805Z,101778.84
2022-12-25T18:29:21.475Z,101800.00
2022-12-25T18:32:28.213Z,101806.72
2022-12-25T18:35:33.024Z,101794.91
2022-12-25T18:38:37.746Z,101800.41
2022-12-25T18:42:02.360Z,101787.75
2022-12-25T18:45:13.007Z,101798.25
2022-12-25T18:48:17.748Z,101789.31
2022-12-25T18:51:22.557Z,101752.28
2022-12-25T18:54:27.123Z,101799.41
2022-12-25T18:57:33.475Z,101809.78
2022-12-25T19:00:37.726Z,101801.47
2022-12-25T19:03:42.543Z,101795.72
2022-12-25T19:06:47.250Z,101807.44
2022-12-25T19:09:52.503Z,101808.38
2022-12-25T19:12:57.093Z,101809.41
2022-12-25T19:16:02.860Z,101799.91
2022-12-25T19:19:07.459Z,101811.09
2022-12-25T19:22:12.565Z,101784.66
2022-12-25T19:25:19.148Z,101808.19
2022-12-25T19:28:25.837Z,101816.75
2022-12-25T19:31:30.425Z,101794.16
2022-12-25T19:34:34.991Z,101819.28
2022-12-25T19:37:39.432Z,101805.81
2022-12-25T19:41:01.067Z,101804.59
2022-12-25T19:44:08.253Z,101810.81
2022-12-25T19:47:13.040Z,101806.84
2022-12-25T19:50:17.638Z,101810.31
2022-12-25T19:53:24.612Z,101803.38
2022-12-25T19:56:30.335Z,101808.50
2022-12-25T19:59:35.075Z,101797.88
2022-12-25T20:02:39.588Z,101786.75
2022-12-25T20:05:51.802Z,101788.53
2022-12-25T20:08:58.919Z,101797.63
2022-12-25T20:12:03.559Z,101785.06
2022-12-25T20:15:08.864Z,101800.56
2022-12-25T20:18:13.408Z,101774.94
2022-12-25T20:21:20.672Z,101805.19
2022-12-25T20:24:25.876Z,101809.16
2022-12-25T20:27:30.416Z,101808.38
2022-12-25T20:30:34.793Z,101803.63
2022-12-25T20:33:39.511Z,101808.25
2022-12-25T20:36:46.077Z,101803.75
2022-12-25T20:39:50.693Z,101821.56
2022-12-25T20:42:55.225Z,101799.41
2022-12-25T20:46:00.312Z,101797.06
2022-12-25T20:49:05.506Z,101813.84
2022-12-25T20:52:10.169Z,101808.72
2022-12-25T20:55:15.029Z,101818.81
2022-12-25T20:58:19.573Z,101826.34
2022-12-25T21:01:24.777Z,101820.50
2022-12-25T21:04:29.387Z,101782.28
2022-12-25T21:07:34.185Z,101830.88
2022-12-25T21:10:38.528Z,101827.06
2022-12-25T21:13:46.334Z,101836.06
2022-12-25T21:16:51.903Z,101816.28
2022-12-25T21:19:56.279Z,101813.50
2022-12-25T21:23:00.767Z,101821.06
2022-12-25T21:26:33.783Z,101833.25
2022-12-25T21:29:38.359Z,101813.25
2022-12-25T21:33:01.300Z,101841.03
2022-12-25T21:36:12.026Z,101829.16
2022-12-25T21:39:17.073Z,101809.56
2022-12-25T21:42:21.681Z,101835.78
2022-12-25T21:45:26.333Z,101842.72
2022-12-25T21:48:31.426Z,101869.03
2022-12-25T21:51:54.301Z,101836.47
2022-12-25T21:54:58.725Z,101865.06
2022-12-25T21:58:03.988Z,101842.34
2022-12-25T22:01:08.697Z,101864.25
2022-12-25T22:04:14.681Z,101866.81
2022-12-25T22:07:19.273Z,101865.16
2022-12-25T22:10:23.796Z,101892.38
2022-12-25T22:13:46.407Z,101894.38
2022-12-25T22:17:09.591Z,101888.13
2022-12-25T22:20:20.473Z,101898.00
2022-12-25T22:23:25.148Z,101898.13
2022-12-25T22:26:29.806Z,101890.81
2022-12-25T22:29:34.923Z,101917.09
2022-12-25T22:32:39.508Z,101920.06
2022-12-25T22:35:43.897Z,101900.44
2022-12-25T22:38:48.218Z,101908.22
2022-12-25T22:41:52.655Z,101901.41
2022-12-25T22:44:57.185Z,101905.16
2022-12-25T22:48:01.693Z,101892.38
2022-12-25T22:51:06.320Z,101897.22
2022-12-25T22:54:13.957Z,101910.28
2022-12-25T22:57:18.206Z,101871.44
2022-12-25T23:00:24.113Z,101885.69
2022-12-25T23:03:29.041Z,101883.50
2022-12-25T23:06:33.669Z,101875.69
2022-12-25T23:09:38.271Z,101876.28
2022-12-25T23:13:01.346Z,101875.38
2022-12-25T23:16:06.926Z,101894.75
2022-12-25T23:19:31.558Z,101909.16
2022-12-25T23:22:54.837Z,101889.81
2022-12-25T23:26:11.428Z,101913.94
2022-12-25T23:29:34.194Z,101901.59
2022-12-25T23:32:39.418Z,101916.66
2022-12-25T23:35:43.950Z,101918.91
2022-12-25T23:38:48.511Z,101927.94
2022-12-25T23:41:53.091Z,101931.91
2022-12-25T23:44:57.603Z,101925.03
2022-12-25T23:48:02.295Z,101902.69
2022-12-25T23:51:10.252Z,101938.75
2022-12-25T23:54:18.523Z,101900.72
2022-12-25T23:57:22.970Z,101924.81
